Time;durP1;ratioP1;P1;durP2;ratioP2;P2;SDS_P1;SDS_P2;PMS_P1;PMS_P2;Temp;Humidity;BMP_temperature;BMP_pressure;BME280_temperature;BME280_humidity;BME280_pressure;Samples;Min_cycle;Max_cycle;Signal;HPM_P1;HPM_P2
2020/12/02 00:01:59;;;;;;;26.50;17.67;;;;;;;-3.22;74.65;99283.07;1815417;79;21412;-69
2020/12/02 00:04:27;;;;;;;25.48;16.27;;;;;;;-3.22;74.23;99282.20;1815407;79;20936;-70
2020/12/02 00:06:54;;;;;;;25.48;18.20;;;;;;;-3.18;74.44;99285.28;1815421;79;20916;-70
2020/12/02 00:09:22;;;;;;;25.43;16.67;;;;;;;-3.20;74.45;99287.02;1815342;79;20873;-70
2020/12/02 00:11:51;;;;;;;23.55;15.83;;;;;;;-3.22;74.50;99282.20;1815399;78;20892;-70
2020/12/02 00:14:26;;;;;;;22.45;15.75;;;;;;;-3.25;74.72;99278.27;1815462;79;21407;-69
2020/12/02 00:16:54;;;;;;;20.02;15.28;;;;;;;-3.24;74.54;99273.45;1815424;78;20928;-69
2020/12/02 00:19:21;;;;;;;21.77;14.85;;;;;;;-3.25;74.61;99287.45;1815414;79;20908;-69
2020/12/02 00:22:06;;;;;;;28.20;17.00;;;;;;;-3.30;74.51;99289.63;1815330;79;20999;-70
2020/12/02 00:24:34;;;;;;;27.93;18.17;;;;;;;-3.32;74.70;99283.51;1815504;79;20904;-69
2020/12/02 00:27:10;;;;;;;24.65;17.67;;;;;;;-3.33;74.70;99288.31;1815448;79;21193;-69
2020/12/02 00:29:38;;;;;;;32.03;18.55;;;;;;;-3.31;74.98;99290.53;1815371;78;20980;-70
2020/12/02 00:32:06;;;;;;;26.45;17.87;;;;;;;-3.32;75.06;99286.14;1815323;79;20912;-69
2020/12/02 00:34:35;;;;;;;28.35;17.60;;;;;;;-3.32;74.86;99297.95;1815367;79;20896;-71
2020/12/02 00:37:03;;;;;;;21.87;16.97;;;;;;;-3.29;74.79;99299.28;1815468;79;20904;-69
2020/12/02 00:39:31;;;;;;;23.35;16.45;;;;;;;-3.32;74.56;99294.02;1732257;79;21336;-69
2020/12/02 00:41:59;;;;;;;27.70;17.00;;;;;;;-3.32;74.48;99287.90;1815297;79;20976;-70
2020/12/02 00:44:27;;;;;;;28.15;18.80;;;;;;;-3.32;74.42;99286.14;1815441;79;20983;-70
2020/12/02 00:46:54;;;;;;;37.40;20.92;;;;;;;-3.31;74.56;99288.31;1815351;79;20928;-70
2020/12/02 00:49:22;;;;;;;29.77;18.05;;;;;;;-3.30;74.78;99294.89;1815412;79;20904;-70
2020/12/02 00:51:50;;;;;;;26.12;17.32;;;;;;;-3.29;74.89;99286.14;1815402;78;21188;-69
2020/12/02 00:54:17;;;;;;;26.90;16.48;;;;;;;-3.28;74.49;99290.53;1815342;79;20967;-70
2020/12/02 00:56:45;;;;;;;25.32;17.45;;;;;;;-3.26;74.34;99290.53;1809810;78;20973;-70
2020/12/02 00:59:20;;;;;;;24.72;16.75;;;;;;;-3.26;74.35;99287.91;1797782;79;20921;-70
2020/12/02 01:02:09;;;;;;;24.77;15.58;;;;;;;-3.29;74.40;99284.83;1797859;79;21386;-69
2020/12/02 01:04:37;;;;;;;26.20;16.23;;;;;;;-3.28;74.43;99294.47;1797844;79;22260;-70
2020/12/02 01:07:05;;;;;;;24.50;15.95;;;;;;;-3.25;74.44;99287.45;1797722;79;20965;-69
2020/12/02 01:09:32;;;;;;;22.60;16.45;;;;;;;-3.26;74.37;99272.14;1797807;79;20917;-69
2020/12/02 01:12:01;;;;;;;23.30;16.60;;;;;;;-3.23;74.36;99280.44;1797736;79;20898;-69
2020/12/02 01:14:29;;;;;;;23.05;17.60;;;;;;;-3.21;74.44;99277.40;1797802;79;20977;-69
2020/12/02 01:16:58;;;;;;;21.10;14.87;;;;;;;-3.21;74.48;99280.89;1797885;79;21375;-70
2020/12/02 01:19:30;;;;;;;19.48;13.98;;;;;;;-3.19;74.27;99275.64;1798006;79;20992;-70
2020/12/02 01:22:23;;;;;;;23.87;15.40;;;;;;;-3.18;74.20;99275.64;1798046;79;20965;-70
2020/12/02 01:25:17;;;;;;;17.55;13.72;;;;;;;-3.17;74.11;99271.25;1796666;79;20928;-68
2020/12/02 01:28:06;;;;;;;17.92;13.15;;;;;;;-3.15;74.06;99265.58;1798037;79;20909;-68
2020/12/02 01:30:36;;;;;;;19.42;14.30;;;;;;;-3.15;73.96;99270.84;1797946;79;21395;-68
2020/12/02 01:33:04;;;;;;;20.50;13.70;;;;;;;-3.15;73.72;99270.38;1797893;79;20936;-70
2020/12/02 01:35:33;;;;;;;19.95;13.95;;;;;;;-3.14;73.83;99263.36;1797893;79;20912;-70
2020/12/02 01:38:05;;;;;;;17.92;13.45;;;;;;;-3.14;73.92;99262.05;1797951;79;20897;-70
2020/12/02 01:40:34;;;;;;;17.98;13.98;;;;;;;-3.13;74.02;99268.63;1797926;79;20881;-70
2020/12/02 01:43:07;;;;;;;20.27;14.10;;;;;;;-3.13;73.94;99271.25;1797998;79;21369;-69
2020/12/02 01:45:38;;;;;;;16.70;13.03;;;;;;;-3.12;73.94;99273.02;1797885;79;20937;-69
2020/12/02 01:48:28;;;;;;;22.27;14.33;;;;;;;-3.12;73.78;99266.45;1797941;79;20972;-69
2020/12/02 01:51:21;;;;;;;23.55;14.98;;;;;;;-3.09;73.84;99270.39;1797677;79;21031;-70
2020/12/02 01:54:09;;;;;;;23.00;13.70;;;;;;;-3.09;74.05;99274.75;1798135;79;21401;-69
2020/12/02 01:57:06;;;;;;;21.07;14.28;;;;;;;-3.09;74.02;99276.06;1797853;79;21189;-69
2020/12/02 01:59:55;;;;;;;19.10;13.40;;;;;;;-3.08;73.99;99272.56;1797716;79;20905;-69
2020/12/02 02:02:35;;;;;;;22.87;17.05;;;;;;;-3.09;74.15;99270.80;1797963;79;20913;-69
2020/12/02 02:05:26;;;;;;;20.02;14.43;;;;;;;-3.09;74.34;99264.23;1797951;79;20929;-70
2020/12/02 02:07:53;;;;;;;17.98;14.18;;;;;;;-3.09;74.30;99265.55;1797972;79;20870;-69
2020/12/02 02:10:31;;;;;;;18.75;13.62;;;;;;;-3.09;74.26;99257.24;1797978;79;22253;-69
2020/12/02 02:13:39;;;;;;;18.92;13.58;;;;;;;-3.09;74.20;99262.50;1797862;79;20925;-69
2020/12/02 02:16:12;;;;;;;18.45;13.30;;;;;;;-3.09;74.13;99268.17;1796730;79;21011;-69
2020/12/02 02:18:39;;;;;;;16.90;14.38;;;;;;;-3.07;74.16;99264.23;1797872;79;20933;-69
2020/12/02 02:21:12;;;;;;;18.12;13.62;;;;;;;-3.07;74.41;99255.03;1797915;79;20957;-69
2020/12/02 02:23:40;;;;;;;20.32;15.13;;;;;;;-3.08;74.39;99259.42;1797925;79;21431;-69
2020/12/02 02:26:12;;;;;;;21.30;13.48;;;;;;;-3.07;74.32;99262.50;1797833;79;20989;-69
2020/12/02 02:28:51;;;;;;;14.15;12.10;;;;;;;-3.06;74.43;99266.86;1797829;79;21343;-69
2020/12/02 02:31:21;;;;;;;12.88;9.83;;;;;;;-3.06;73.77;99264.68;1794389;79;20972;-68
2020/12/02 02:33:50;;;;;;;15.20;12.35;;;;;;;-3.06;73.32;99261.60;1797949;79;20921;-68
2020/12/02 02:36:22;;;;;;;15.35;11.50;;;;;;;-3.08;73.37;99265.99;1797840;79;21200;-69
2020/12/02 02:38:50;;;;;;;18.50;13.60;;;;;;;-3.12;73.29;99261.64;1798163;79;20917;-69
2020/12/02 02:41:18;;;;;;;16.60;12.70;;;;;;;-3.12;73.55;99265.58;1797858;79;21005;-69
2020/12/02 02:43:46;;;;;;;16.52;13.58;;;;;;;-3.10;73.66;99269.08;1797834;79;20929;-69
2020/12/02 02:46:14;;;;;;;20.75;13.98;;;;;;;-3.10;73.76;99259.88;1797924;79;20905;-69
2020/12/02 02:48:42;;;;;;;20.97;13.83;;;;;;;-3.10;73.95;99271.25;1797897;79;21361;-69
2020/12/02 02:51:09;;;;;;;18.77;13.20;;;;;;;-3.07;73.97;99268.17;1797747;79;20996;-70
2020/12/02 02:53:37;;;;;;;18.00;13.15;;;;;;;-3.06;73.82;99261.60;1718067;79;21560;-70
2020/12/02 02:56:05;;;;;;;17.10;12.07;;;;;;;-3.05;73.20;99251.98;1797741;79;21000;-69
2020/12/02 02:58:33;;;;;;;20.02;12.70;;;;;;;-3.03;73.26;99260.29;1797869;79;20902;-69
2020/12/02 03:01:01;;;;;;;16.42;11.43;;;;;;;-3.01;73.52;99265.12;1797880;79;21375;-69
2020/12/02 03:03:29;;;;;;;19.77;13.22;;;;;;;-3.02;73.57;99255.48;1797827;79;20937;-69
2020/12/02 03:05:58;;;;;;;20.60;13.00;;;;;;;-3.03;73.38;99251.09;1797960;79;21552;-69
2020/12/02 03:08:28;;;;;;;14.38;12.07;;;;;;;-3.02;73.47;99259.42;1797792;79;20976;-70
2020/12/02 03:10:56;;;;;;;18.50;13.03;;;;;;;-3.01;73.59;99258.97;1797828;79;21016;-69
2020/12/02 03:13:43;;;;;;;16.90;11.90;;;;;;;-3.00;73.60;99258.97;1797893;79;21367;-69
2020/12/02 03:16:39;;;;;;;15.03;12.43;;;;;;;-3.01;73.35;99259.88;1797818;79;20929;-69
2020/12/02 03:19:23;;;;;;;16.70;12.25;;;;;;;-2.99;73.28;99260.73;1794842;79;20996;-70
2020/12/02 03:21:53;;;;;;;18.27;13.28;;;;;;;-3.00;73.28;99255.03;1776065;79;20929;-69
2020/12/02 03:24:20;;;;;;;17.65;13.08;;;;;;;-2.99;73.28;99255.92;1797983;79;21326;-69
2020/12/02 03:26:49;;;;;;;17.80;12.85;;;;;;;-3.00;73.31;99253.72;1797846;79;21354;-69
2020/12/02 03:29:18;;;;;;;17.87;12.88;;;;;;;-3.00;73.46;99251.09;1797769;79;20987;-69
2020/12/02 03:31:45;;;;;;;18.12;13.95;;;;;;;-3.00;73.61;99252.84;1797840;79;21019;-70
2020/12/02 03:34:16;;;;;;;17.02;12.58;;;;;;;-2.98;73.55;99248.45;1797799;79;20873;-69
2020/12/02 03:36:44;;;;;;;17.20;11.90;;;;;;;-2.98;73.50;99249.36;1797966;79;21346;-69
2020/12/02 03:39:13;;;;;;;16.27;12.45;;;;;;;-2.97;73.50;99248.45;1797765;79;21359;-69
2020/12/02 03:41:40;;;;;;;19.25;13.62;;;;;;;-2.96;73.47;99251.53;1797851;79;20937;-69
2020/12/02 03:44:09;;;;;;;16.45;13.15;;;;;;;-2.96;73.54;99242.33;1797863;79;21533;-69
2020/12/02 03:46:36;;;;;;;19.42;13.38;;;;;;;-2.97;73.51;99243.20;1797781;79;21011;-70
2020/12/02 03:49:05;;;;;;;20.35;13.75;;;;;;;-2.95;73.31;99251.98;1797976;79;20932;-70
2020/12/02 03:51:33;;;;;;;18.65;13.95;;;;;;;-2.93;73.33;99248.91;1797809;79;21364;-70
2020/12/02 03:54:00;;;;;;;19.70;13.38;;;;;;;-2.93;73.40;99246.72;1797728;79;20921;-70
2020/12/02 03:56:28;;;;;;;20.27;13.43;;;;;;;-2.93;73.44;99248.91;1797807;79;20925;-70
2020/12/02 03:58:56;;;;;;;17.00;13.00;;;;;;;-2.94;73.30;99251.08;1802835;79;20965;-69
2020/12/02 04:01:23;;;;;;;17.57;13.18;;;;;;;-2.94;73.37;99249.77;1804326;79;20870;-69
2020/12/02 04:03:51;;;;;;;19.57;13.85;;;;;;;-2.96;73.46;99249.36;1804374;79;21353;-69
2020/12/02 04:06:18;;;;;;;19.30;13.93;;;;;;;-2.99;73.54;99244.09;1804279;79;20980;-69
2020/12/02 04:08:46;;;;;;;23.90;15.72;;;;;;;-3.02;73.46;99254.61;1804222;79;21019;-70
2020/12/02 04:11:14;;;;;;;21.80;13.60;;;;;;;-3.09;73.59;99255.03;1804276;79;20924;-69
2020/12/02 04:13:43;;;;;;;21.57;13.65;;;;;;;-3.13;73.65;99263.81;1775349;79;20925;-69
2020/12/02 04:16:10;;;;;;;18.15;13.53;;;;;;;-3.19;73.73;99263.81;1804271;79;21398;-69
2020/12/02 04:18:37;;;;;;;20.45;14.98;;;;;;;-3.25;73.70;99259.87;1804218;78;20970;-69
2020/12/02 04:21:05;;;;;;;22.27;14.80;;;;;;;-3.28;73.58;99266.88;1804275;79;21000;-70
2020/12/02 04:23:33;;;;;;;23.75;15.85;;;;;;;-3.34;73.62;99261.63;1804278;79;20929;-70
2020/12/02 04:26:00;;;;;;;24.20;15.65;;;;;;;-3.40;73.64;99270.81;1804336;79;20908;-69
2020/12/02 04:28:28;;;;;;;18.90;13.62;;;;;;;-3.46;73.53;99268.17;1804242;79;21191;-69
2020/12/02 04:30:58;;;;;;;21.00;14.90;;;;;;;-3.52;73.61;99269.03;1804206;79;21004;-70
2020/12/02 04:33:26;;;;;;;21.93;15.08;;;;;;;-3.58;73.69;99273.41;1804367;79;20882;-70
2020/12/02 04:35:54;;;;;;;21.55;14.45;;;;;;;-3.65;73.63;99274.70;1804210;79;20940;-70
2020/12/02 04:38:21;;;;;;;23.98;16.12;;;;;;;-3.72;73.63;99286.09;1804328;79;20901;-70
2020/12/02 04:40:49;;;;;;;23.40;15.25;;;;;;;-3.79;73.70;99289.56;1804237;79;21479;-69
2020/12/02 04:43:35;;;;;;;29.37;16.27;;;;;;;-3.87;73.78;99283.42;1804272;79;21002;-69
2020/12/02 04:46:15;;;;;;;22.60;15.45;;;;;;;-3.94;73.84;99290.81;1804352;78;21480;-69
2020/12/02 04:48:48;;;;;;;24.57;16.12;;;;;;;-4.03;73.83;99285.98;1804128;79;20936;-68
2020/12/02 04:51:21;;;;;;;17.75;13.48;;;;;;;-4.14;74.02;99286.38;1804008;79;21035;-69
2020/12/02 04:53:52;;;;;;;21.15;15.93;;;;;;;-4.22;74.08;99284.17;1803677;79;22718;-69
2020/12/02 04:56:20;;;;;;;25.75;15.78;;;;;;;-4.33;74.17;99288.05;1804263;78;20996;-69
2020/12/02 04:58:48;;;;;;;21.60;14.70;;;;;;;-4.43;74.39;99289.76;1804203;77;20957;-69
2020/12/02 05:01:24;;;;;;;26.33;15.60;;;;;;;-4.51;74.68;99286.64;1804245;79;20991;-68
2020/12/02 05:04:00;;;;;;;25.90;16.50;;;;;;;-4.59;74.80;99283.97;1804367;79;20901;-70
2020/12/02 05:06:40;;;;;;;26.23;16.37;;;;;;;-4.65;74.90;99286.55;1804260;79;21176;-69
2020/12/02 05:09:16;;;;;;;25.68;16.85;;;;;;;-4.73;75.04;99281.26;1804205;79;20991;-70
2020/12/02 05:12:13;;;;;;;31.40;21.00;;;;;;;-4.80;75.19;99277.73;1804311;79;21461;-69
2020/12/02 05:14:44;;;;;;;31.30;19.40;;;;;;;-4.84;75.30;99277.70;1804293;79;20909;-68
2020/12/02 05:17:25;;;;;;;27.73;19.57;;;;;;;-4.91;75.32;99282.03;1804320;79;20921;-68
2020/12/02 05:20:19;;;;;;;28.00;19.55;;;;;;;-4.96;75.43;99285.05;1804278;79;21358;-69
2020/12/02 05:22:50;;;;;;;25.27;16.57;;;;;;;-5.01;75.53;99282.81;1804145;79;20995;-70
2020/12/02 05:25:31;;;;;;;28.27;18.27;;;;;;;-5.10;75.36;99287.56;1804361;79;21414;-68
2020/12/02 05:28:27;;;;;;;29.92;18.25;;;;;;;-5.16;75.60;99281.83;1804012;78;21421;-70
2020/12/02 05:31:16;;;;;;;25.75;16.45;;;;;;;-5.22;75.74;99280.47;1804348;79;21430;-69
2020/12/02 05:33:44;;;;;;;41.83;22.17;;;;;;;-5.29;75.93;99282.17;1804263;79;21371;-69
2020/12/02 05:36:32;;;;;;;39.27;23.40;;;;;;;-5.33;76.04;99276.89;1804107;79;20932;-70
2020/12/02 05:39:06;;;;;;;41.42;20.92;;;;;;;-5.38;76.20;99275.54;1804261;79;20964;-71
2020/12/02 05:41:33;;;;;;;43.15;21.97;;;;;;;-5.43;76.19;99279.00;1804275;79;20869;-69
2020/12/02 05:44:18;;;;;;;36.63;20.43;;;;;;;-5.48;76.13;99281.58;1775771;79;20901;-70
2020/12/02 05:46:59;;;;;;;39.40;21.93;;;;;;;-5.54;76.22;99290.23;1804339;79;22333;-69
2020/12/02 05:49:35;;;;;;;42.05;23.50;;;;;;;-5.60;76.46;99288.86;1804206;79;21440;-69
2020/12/02 05:52:03;;;;;;;41.35;25.27;;;;;;;-5.65;76.56;99287.95;1803098;79;20896;-69
2020/12/02 05:54:32;;;;;;;41.35;24.40;;;;;;;-5.71;76.71;99294.42;1804254;79;20897;-70
2020/12/02 05:57:02;;;;;;;41.08;25.85;;;;;;;-5.73;77.03;99290.92;1804290;79;20959;-69
2020/12/02 05:59:29;;;;;;;43.52;26.33;;;;;;;-5.74;77.20;99293.09;1775939;79;21365;-69
2020/12/02 06:01:58;;;;;;;39.83;23.60;;;;;;;-5.76;77.21;99292.20;1806139;78;21003;-69
2020/12/02 06:04:25;;;;;;;41.35;24.37;;;;;;;-5.78;77.27;99282.16;1806449;79;20924;-70
2020/12/02 06:06:56;;;;;;;35.75;22.73;;;;;;;-5.79;77.20;99281.70;1806362;79;20920;-70
2020/12/02 06:09:45;;;;;;;43.60;24.12;;;;;;;-5.79;77.19;99289.11;1806424;79;20893;-69
2020/12/02 06:12:23;;;;;;;33.13;22.48;;;;;;;-5.81;76.97;99294.33;1806463;78;22440;-69
2020/12/02 06:14:51;;;;;;;37.95;21.65;;;;;;;-5.83;76.90;99297.80;1806334;79;20920;-71
2020/12/02 06:17:26;;;;;;;38.33;21.45;;;;;;;-5.85;77.01;99299.09;1806351;79;21405;-69
2020/12/02 06:19:55;;;;;;;36.53;20.12;;;;;;;-5.86;76.89;99300.39;1806349;79;21346;-70
2020/12/02 06:22:44;;;;;;;35.40;20.62;;;;;;;-5.89;76.96;99295.98;1806316;79;20914;-69
2020/12/02 06:25:51;;;;;;;39.78;21.27;;;;;;;-5.88;77.05;99296.86;1806348;78;21187;-68
2020/12/02 06:28:33;;;;;;;40.23;22.27;;;;;;;-5.89;77.20;99302.53;1806386;79;21424;-69
2020/12/02 06:31:06;;;;;;;41.30;21.93;;;;;;;-5.88;77.36;99300.37;1806369;79;20936;-69
2020/12/02 06:33:36;;;;;;;40.28;20.68;;;;;;;-5.88;77.32;99290.31;1805916;79;21327;-70
2020/12/02 06:36:24;;;;;;;41.50;21.33;;;;;;;-5.86;77.25;99298.64;1806268;79;21521;-70
2020/12/02 06:38:54;;;;;;;42.85;23.35;;;;;;;-5.85;77.14;99291.25;1806386;79;21196;-70
2020/12/02 06:41:28;;;;;;;44.08;22.55;;;;;;;-5.84;77.17;99303.45;1806285;79;20936;-69
2020/12/02 06:44:05;;;;;;;42.30;22.75;;;;;;;-5.83;77.11;99301.73;1806332;79;20999;-70
2020/12/02 06:47:15;;;;;;;37.17;22.10;;;;;;;-5.82;77.10;99301.75;1806343;79;20932;-70
2020/12/02 06:49:44;;;;;;;54.45;24.85;;;;;;;-5.81;77.05;99296.94;1806372;79;21458;-68
2020/12/02 06:52:25;;;;;;;45.45;24.35;;;;;;;-5.78;77.08;99297.86;1806319;78;21344;-69
2020/12/02 06:55:18;;;;;;;44.33;25.45;;;;;;;-5.76;77.36;99301.36;1806255;79;20928;-68
2020/12/02 06:57:46;;;;;;;;;;;;;;;-5.74;77.39;99290.47;1809127;79;20948;-68
2020/12/02 07:00:22;;;;;;;67.17;27.60;;;;;;;-5.70;77.35;99287.90;1798763;79;20118;-68
2020/12/02 07:02:58;;;;;;;58.25;27.02;;;;;;;-5.67;77.27;99292.30;1797512;79;20973;-69
2020/12/02 07:05:42;;;;;;;64.00;28.27;;;;;;;-5.62;77.17;99291.91;1797895;79;21338;-70
2020/12/02 07:08:24;;;;;;;58.87;26.95;;;;;;;-5.59;77.10;99285.84;1797902;79;21411;-72
2020/12/02 07:11:02;;;;;;;63.55;29.18;;;;;;;-5.55;77.02;99296.36;1797847;79;20905;-70
2020/12/02 07:13:34;;;;;;;72.82;38.80;;;;;;;-5.52;76.74;99291.15;1797479;79;21406;-71
2020/12/02 07:16:11;;;;;;;195.47;109.90;;;;;;;-5.50;76.62;99292.03;1797846;79;20913;-70
2020/12/02 07:18:39;;;;;;;69.03;34.63;;;;;;;-5.47;76.48;99285.52;1777553;79;21192;-68
2020/12/02 07:21:26;;;;;;;45.33;26.12;;;;;;;-5.43;76.47;99287.72;1797172;79;20984;-67
2020/12/02 07:23:56;;;;;;;57.93;26.37;;;;;;;-5.42;76.29;99286.87;1779270;79;21000;-69
2020/12/02 07:26:24;;;;;;;57.60;28.15;;;;;;;-5.40;76.29;99284.27;1776122;79;20909;-69
2020/12/02 07:29:03;;;;;;;60.00;31.23;;;;;;;-5.36;76.28;99288.64;1797836;79;20869;-68
2020/12/02 07:31:32;;;;;;;56.35;29.32;;;;;;;-5.33;76.36;99286.95;1797816;79;21436;-69
2020/12/02 07:34:13;;;;;;;52.38;30.68;;;;;;;-5.27;76.30;99276.95;1797822;79;20933;-70
2020/12/02 07:36:41;;;;;;;62.43;30.48;;;;;;;-5.24;76.05;99286.14;1797917;79;20913;-68
2020/12/02 07:39:18;;;;;;;65.30;32.60;;;;;;;-5.21;75.85;99274.82;1797814;79;20984;-69
2020/12/02 07:41:54;;;;;;;52.48;27.62;;;;;;;-5.18;75.71;99274.41;1797874;79;21008;-71
2020/12/02 07:44:22;;;;;;;41.53;23.62;;;;;;;-5.14;75.96;99279.22;1797954;79;21315;-68
2020/12/02 07:46:51;;;;;;;48.60;27.15;;;;;;;-5.09;75.55;99281.03;1797860;79;20933;-69
2020/12/02 07:49:19;;;;;;;46.10;27.22;;;;;;;-5.06;75.40;99278.88;1797850;79;20964;-69
2020/12/02 07:51:52;;;;;;;53.20;30.02;;;;;;;-5.06;75.51;99274.05;1797772;79;20992;-70
2020/12/02 07:54:25;;;;;;;55.38;30.10;;;;;;;-5.02;75.73;99270.59;1797879;79;20909;-68
2020/12/02 07:56:55;;;;;;;54.10;27.32;;;;;;;-4.97;75.70;99271.50;1797791;79;21376;-69
2020/12/02 07:59:26;;;;;;;76.92;40.20;;;;;;;-4.92;75.37;99269.78;1797758;79;21338;-68
2020/12/02 08:02:01;;;;;;;118.00;61.45;;;;;;;-4.90;75.23;99262.83;1797820;79;20932;-69
2020/12/02 08:04:41;;;;;;;131.37;77.90;;;;;;;-4.87;75.15;99262.84;1797790;79;20968;-69
2020/12/02 08:07:11;;;;;;;92.80;48.00;;;;;;;-4.83;75.09;99267.22;1797876;79;20973;-69
2020/12/02 08:09:44;;;;;;;78.62;42.98;;;;;;;-4.80;75.01;99271.63;1797872;79;22085;-69
2020/12/02 08:12:28;;;;;;;57.80;28.38;;;;;;;-4.76;74.94;99262.89;1797762;79;20944;-69
2020/12/02 08:15:07;;;;;;;44.13;25.12;;;;;;;-4.73;75.22;99262.50;1797784;79;21704;-69
2020/12/02 08:17:34;;;;;;;53.13;28.67;;;;;;;-4.64;75.23;99266.03;1797480;79;20912;-69
2020/12/02 08:20:31;;;;;;;37.88;23.95;;;;;;;-4.58;75.22;99264.76;1797845;79;20865;-69
2020/12/02 08:23:26;;;;;;;39.60;23.92;;;;;;;-4.46;74.83;99256.06;1837097;78;26993;-69
2020/12/02 08:26:10;;;;;;;43.55;25.57;;;;;;;-4.44;74.89;99256.97;1809641;79;20865;-68
2020/12/02 08:28:40;;;;;;;46.37;28.60;;;;;;;-4.40;74.63;99263.55;1809754;79;22732;-68
2020/12/02 08:31:28;;;;;;;42.23;22.50;;;;;;;-4.33;74.72;99264.89;1809532;79;21433;-69
2020/12/02 08:34:23;;;;;;;45.98;25.40;;;;;;;-4.26;74.72;99264.03;1809614;79;20928;-70
2020/12/02 08:36:54;;;;;;;40.92;24.50;;;;;;;-4.21;74.53;99260.56;1809588;79;20968;-69
2020/12/02 08:39:30;;;;;;;39.80;23.87;;;;;;;-4.15;74.44;99251.82;1805262;79;20995;-69
2020/12/02 08:41:58;;;;;;;51.85;24.90;;;;;;;-4.10;74.25;99251.42;1809661;79;22119;-69
2020/12/02 08:44:26;;;;;;;57.23;24.10;;;;;;;-4.06;74.24;99247.05;1809551;79;20873;-68
2020/12/02 08:47:00;;;;;;;39.40;23.60;;;;;;;-4.03;74.23;99245.31;1809595;79;20924;-69
2020/12/02 08:49:32;;;;;;;40.15;19.75;;;;;;;-3.97;73.90;99244.88;1809577;79;20933;-69
2020/12/02 08:52:00;;;;;;;61.77;28.95;;;;;;;-3.96;73.87;99239.63;1809655;79;21382;-69
2020/12/02 08:54:27;;;;;;;66.45;25.85;;;;;;;-3.93;73.96;99240.09;1809630;79;21364;-69
2020/12/02 08:57:05;;;;;;;56.10;29.25;;;;;;;-3.89;74.32;99237.92;1778881;79;20924;-69
2020/12/02 08:59:34;;;;;;;46.63;26.75;;;;;;;-3.85;74.21;99229.16;1809561;79;21008;-69
2020/12/02 09:02:05;;;;;;;53.45;25.55;;;;;;;-3.80;74.23;99222.16;1809474;79;20991;-68
2020/12/02 09:04:32;;;;;;;51.33;26.23;;;;;;;-3.72;74.20;99224.80;1807312;79;20932;-69
2020/12/02 09:07:00;;;;;;;39.83;23.12;;;;;;;-3.67;73.79;99227.02;1809558;79;21374;-68
2020/12/02 09:09:29;;;;;;;48.78;25.77;;;;;;;-3.61;73.69;99228.77;1809488;79;21503;-70
2020/12/02 09:11:56;;;;;;;51.13;24.55;;;;;;;-3.55;73.54;99219.58;1809485;79;20932;-70
2020/12/02 09:14:25;;;;;;;40.52;22.40;;;;;;;-3.52;73.25;99216.95;1809324;79;20928;-70
2020/12/02 09:16:54;;;;;;;39.80;24.07;;;;;;;-3.49;73.42;99207.31;1809499;79;20873;-70
2020/12/02 09:19:22;;;;;;;37.58;23.35;;;;;;;-3.42;73.49;99213.89;1809528;79;22058;-68
2020/12/02 09:21:49;;;;;;;39.63;24.60;;;;;;;-3.38;73.54;99204.69;1808010;79;20995;-69
2020/12/02 09:24:19;;;;;;;39.00;23.38;;;;;;;-3.32;73.55;99203.38;1805092;79;20909;-69
2020/12/02 09:26:46;;;;;;;45.75;26.07;;;;;;;-3.24;73.57;99194.63;1804944;79;20905;-70
2020/12/02 09:29:16;;;;;;;43.95;23.73;;;;;;;-3.16;73.25;99195.49;1804939;79;20922;-67
2020/12/02 09:31:44;;;;;;;45.40;23.10;;;;;;;-3.10;73.02;99192.41;1805019;79;21358;-69
2020/12/02 09:34:11;;;;;;;34.53;21.90;;;;;;;-3.01;72.78;99191.53;1804433;79;20959;-69
2020/12/02 09:36:39;;;;;;;45.08;23.25;;;;;;;-2.95;72.27;99194.15;1804424;79;20964;-69
2020/12/02 09:39:08;;;;;;;39.33;22.32;;;;;;;-2.91;72.15;99188.44;1804487;79;21343;-69
2020/12/02 09:42:00;;;;;;;45.40;25.12;;;;;;;-2.90;71.74;99183.63;1804371;79;20869;-69
2020/12/02 09:44:49;;;;;;;36.80;20.12;;;;;;;-2.89;71.89;99177.47;1804478;79;21780;-68
2020/12/02 09:47:17;;;;;;;42.33;24.18;;;;;;;-2.84;71.61;99174.83;1804352;79;20927;-68
2020/12/02 09:49:47;;;;;;;52.43;25.55;;;;;;;-2.80;71.84;99179.21;1804431;78;20905;-68
2020/12/02 09:52:38;;;;;;;37.78;21.97;;;;;;;-2.75;71.86;99168.23;1804457;78;20932;-68
2020/12/02 09:55:24;;;;;;;31.57;21.27;;;;;;;-2.71;71.75;99160.78;1804324;79;20920;-68
2020/12/02 09:57:52;;;;;;;34.73;21.75;;;;;;;-2.64;71.74;99162.48;1804415;79;21185;-68
2020/12/02 10:00:23;;;;;;;37.67;21.68;;;;;;;-2.58;71.04;99157.20;1804330;79;21000;-69
2020/12/02 10:03:13;;;;;;;35.33;21.48;;;;;;;-2.53;71.32;99148.43;1804478;78;21453;-70
2020/12/02 10:06:09;;;;;;;37.63;21.80;;;;;;;-2.48;71.19;99138.75;1804494;79;20960;-68
2020/12/02 10:09:08;;;;;;;36.58;18.87;;;;;;;-2.41;70.98;99143.11;1804541;79;21323;-68
2020/12/02 10:11:59;;;;;;;40.12;20.72;;;;;;;-2.33;70.59;99142.63;1804357;79;21347;-69
2020/12/02 10:14:53;;;;;;;37.75;20.02;;;;;;;-2.28;70.54;99138.20;1804375;79;20936;-68
2020/12/02 10:17:49;;;;;;;34.30;20.23;;;;;;;-2.23;70.62;99137.73;1804517;79;21413;-68
2020/12/02 10:20:42;;;;;;;29.07;19.98;;;;;;;-2.15;70.21;99138.14;1804381;79;21326;-67
2020/12/02 10:23:40;;;;;;;30.32;18.73;;;;;;;-2.11;70.17;99141.16;1775694;79;21535;-68
2020/12/02 10:26:37;;;;;;;27.95;19.92;;;;;;;-2.05;70.08;99139.81;1801418;79;21202;-69
2020/12/02 10:29:13;;;;;;;29.18;16.50;;;;;;;-2.00;69.88;99143.31;1797834;79;20932;-68
2020/12/02 10:31:55;;;;;;;28.10;18.87;;;;;;;-1.97;69.37;99136.70;1797911;79;20909;-69
2020/12/02 10:34:27;;;;;;;23.27;16.55;;;;;;;-1.94;69.37;99136.69;1797900;79;20956;-69
2020/12/02 10:37:02;;;;;;;24.63;17.80;;;;;;;-1.90;69.21;99133.13;1797842;79;20937;-69
2020/12/02 10:39:31;;;;;;;32.70;18.07;;;;;;;-1.88;69.00;99128.72;1797485;79;21384;-69
2020/12/02 10:42:30;;;;;;;40.25;21.10;;;;;;;-1.85;69.24;99126.05;1797745;79;21016;-68
2020/12/02 10:45:14;;;;;;;27.80;18.35;;;;;;;-1.83;69.24;99120.36;1797901;79;20925;-68
2020/12/02 10:48:14;;;;;;;25.45;17.00;;;;;;;-1.80;69.25;99126.48;1797873;79;20976;-69
2020/12/02 10:50:43;;;;;;;34.50;19.55;;;;;;;-1.77;69.19;99118.55;1797884;79;20925;-68
2020/12/02 10:53:15;;;;;;;35.52;18.80;;;;;;;-1.74;69.56;99117.22;1798004;79;22091;-69
2020/12/02 10:55:44;;;;;;;37.83;19.87;;;;;;;-1.70;69.47;99117.63;1797894;79;21343;-69
2020/12/02 10:58:24;;;;;;;34.40;20.10;;;;;;;-1.69;69.42;99111.03;1797892;79;20969;-69
2020/12/02 11:00:58;;;;;;;38.20;19.85;;;;;;;-1.68;69.38;99104.00;1797829;79;20995;-68
2020/12/02 11:03:34;;;;;;;30.32;19.92;;;;;;;-1.67;69.40;99111.89;1797889;79;20901;-68
2020/12/02 11:06:36;;;;;;;30.27;20.00;;;;;;;-1.65;69.17;99109.23;1797801;79;20996;-68
2020/12/02 11:09:40;;;;;;;41.50;27.45;;;;;;;-1.63;69.20;99106.14;1797835;79;20928;-69
2020/12/02 11:12:37;;;;;;;30.43;20.00;;;;;;;-1.61;69.31;99104.81;1797973;79;21837;-68
2020/12/02 11:15:27;;;;;;;36.10;23.30;;;;;;;-1.61;69.41;99100.86;1797846;79;20925;-68
2020/12/02 11:18:18;;;;;;;40.60;25.25;;;;;;;-1.60;69.19;99094.71;1797758;79;20909;-68
2020/12/02 11:21:24;;;;;;;39.25;23.75;;;;;;;-1.60;69.05;99102.16;1797931;79;21514;-69
2020/12/02 11:24:14;;;;;;;30.55;20.97;;;;;;;-1.62;69.22;99089.45;1797902;79;20925;-69
2020/12/02 11:26:43;;;;;;;33.30;21.27;;;;;;;-1.62;69.21;99096.05;1813198;79;20968;-68
2020/12/02 11:29:13;;;;;;;34.18;21.65;;;;;;;-1.65;69.60;99090.34;1815421;79;20995;-69
2020/12/02 11:31:53;;;;;;;28.30;19.57;;;;;;;-1.65;69.49;99088.17;1815465;79;20971;-69
2020/12/02 11:34:53;;;;;;;34.78;21.17;;;;;;;-1.65;69.44;99088.17;1815468;79;21361;-68
2020/12/02 11:37:51;;;;;;;33.80;20.88;;;;;;;-1.64;69.64;99086.84;1815384;79;20920;-69
2020/12/02 11:40:25;;;;;;;28.75;19.85;;;;;;;-1.64;69.66;99083.30;1815415;78;21006;-70
2020/12/02 11:43:09;;;;;;;27.82;19.90;;;;;;;-1.64;69.84;99080.25;1815417;79;20980;-69
2020/12/02 11:45:40;;;;;;;33.23;20.57;;;;;;;-1.63;69.90;99083.75;1786524;79;20905;-69
2020/12/02 11:48:33;;;;;;;30.85;19.48;;;;;;;-1.60;69.85;99073.64;1815453;79;22405;-68
2020/12/02 11:51:32;;;;;;;32.48;20.23;;;;;;;-1.59;70.06;99072.31;1815579;79;20940;-69
2020/12/02 11:54:04;;;;;;;30.23;18.60;;;;;;;-1.57;70.04;99061.75;1815434;79;20980;-70
2020/12/02 11:56:39;;;;;;;27.25;18.87;;;;;;;-1.56;70.24;99062.16;1815497;78;20980;-69